Terminal Aerodrome Forecast
Issued by NWS

Home | Current Version | Previous Version | Text Only | Print | Product List | Glossary On
Versions: 1 2 3 4 5 6 7 8 9 10 11 12 13 14 15 16 17 18 19
632
FTUS41 KPBZ 101017 AAB
TAFAGC
TAF AMD
KAGC 101017Z 1010/1106 25013KT 3SM -SN BKN026 OVC035
     FM101700 26010KT 4SM -SHSN OVC014
     FM102200 26010KT 2SM -SHSN OVC012
     FM110200 29010G15KT 1SM -SHSN OVC012=

USA.gov is the U.S. government's official web portal to all federal, state and local government web resources and services.